Time;durP1;ratioP1;P1;durP2;ratioP2;P2;SDS_P1;SDS_P2;PMS_P1;PMS_P2;Temp;Humidity;BMP_temperature;BMP_pressure;BME280_temperature;BME280_humidity;BME280_pressure;Samples;Min_cycle;Max_cycle;Signal;HPM_P1;HPM_P2
2022/09/25 00:00:10;;;;;;;2.63;2.42;;;17.20;56.70;;;;;;5090675;28;20228;-37
2022/09/25 00:02:40;;;;;;;3.60;2.75;;;17.30;56.10;;;;;;5090642;28;20217;-35
2022/09/25 00:05:12;;;;;;;2.72;2.53;;;17.30;56.10;;;;;;5090462;28;20204;-35
2022/09/25 00:07:44;;;;;;;2.95;2.65;;;17.30;56.10;;;;;;5090743;28;20233;-35
2022/09/25 00:10:15;;;;;;;3.10;2.80;;;17.30;56.10;;;;;;5079902;28;20502;-35
2022/09/25 00:12:46;;;;;;;2.95;2.60;;;17.40;56.10;;;;;;5070160;28;20556;-36
2022/09/25 00:15:16;;;;;;;2.63;2.42;;;17.40;56.20;;;;;;5069667;28;20206;-35
2022/09/25 00:17:47;;;;;;;2.40;2.20;;;17.40;56.10;;;;;;5069849;28;20198;-36
2022/09/25 00:20:19;;;;;;;2.75;2.55;;;17.40;56.10;;;;;;5070327;28;20686;-36
2022/09/25 00:22:53;;;;;;;2.65;2.45;;;17.40;56.10;;;;;;5070588;28;20328;-37
2022/09/25 00:25:26;;;;;;;2.88;2.28;;;17.50;56.20;;;;;;5070678;28;20301;-39
2022/09/25 00:27:57;;;;;;;2.70;2.50;;;17.50;56.20;;;;;;5083020;28;20748;-37
2022/09/25 00:30:27;;;;;;;2.60;2.40;;;17.50;56.10;;;;;;5089916;28;20217;-35
2022/09/25 00:32:58;;;;;;;2.55;2.35;;;17.50;56.10;;;;;;5090085;28;20220;-35
2022/09/25 00:35:29;;;;;;;2.75;2.55;;;17.50;56.10;;;;;;5089939;28;20209;-38
2022/09/25 00:38:01;;;;;;;3.00;2.40;;;17.50;56.10;;;;;;5090358;28;20201;-36
2022/09/25 00:40:32;;;;;;;2.50;2.30;;;17.60;56.10;;;;;;5089797;28;20218;-35
2022/09/25 00:43:03;;;;;;;3.70;2.47;;;17.60;56.10;;;;;;5089945;28;20190;-40
2022/09/25 00:45:33;;;;;;;3.20;2.70;;;17.60;56.10;;;;;;5070963;28;20229;-37
2022/09/25 00:48:06;;;;;;;2.90;2.63;;;17.60;56.10;;;;;;5069637;28;20231;-35
2022/09/25 00:50:40;;;;;;;3.67;2.58;;;17.70;56.10;;;;;;5069917;28;20226;-39
2022/09/25 00:53:18;;;;;;;2.70;2.38;;;17.70;56.10;;;;;;5072360;28;20183;-43
2022/09/25 00:55:49;;;;;;;2.60;2.35;;;17.70;56.20;;;;;;5081859;28;20205;-36
2022/09/25 00:58:22;;;;;;;2.97;2.65;;;17.70;56.20;;;;;;5089619;28;20194;-35
2022/09/25 01:00:53;;;;;;;2.67;2.42;;;17.70;56.20;;;;;;5089143;28;20586;-38
2022/09/25 01:03:24;;;;;;;2.33;2.13;;;17.70;56.20;;;;;;5089725;28;20194;-42
2022/09/25 01:05:59;;;;;;;3.30;2.53;;;17.70;56.20;;;;;;5089929;28;20697;-36
2022/09/25 01:08:33;;;;;;;2.88;2.60;;;17.70;56.20;;;;;;5089847;28;20221;-36
2022/09/25 01:11:04;;;;;;;2.60;2.40;;;17.80;56.20;;;;;;5075278;28;20264;-39
2022/09/25 01:13:35;;;;;;;3.00;2.20;;;17.80;56.10;;;;;;5069489;28;20199;-35
2022/09/25 01:16:15;;;;;;;2.92;2.60;;;17.80;56.10;;;;;;5069431;28;20199;-35
2022/09/25 01:18:58;;;;;;;2.92;2.38;;;17.80;56.10;;;;;;5069787;28;20198;-35
2022/09/25 01:21:38;;;;;;;2.70;2.38;;;17.80;56.10;;;;;;5069942;28;20195;-35
2022/09/25 01:24:40;;;;;;;3.40;2.53;;;17.80;56.10;;;;;;5069317;28;20194;-36
2022/09/25 01:27:38;;;;;;;2.45;2.25;;;17.80;56.10;;;;;;5073335;28;20193;-36
2022/09/25 01:30:13;;;;;;;3.53;2.30;;;17.80;56.10;;;;;;5068394;28;20730;-35
2022/09/25 01:32:58;;;;;;;2.63;2.40;;;17.80;56.10;;;;;;5069511;28;20205;-38
2022/09/25 01:35:36;;;;;;;3.13;2.20;;;17.80;56.10;;;;;;5069258;28;20798;-38
2022/09/25 01:38:15;;;;;;;2.97;2.25;;;17.80;56.20;;;;;;5069324;28;20560;-35
2022/09/25 01:40:54;;;;;;;3.60;2.33;;;17.90;56.20;;;;;;5089143;28;20214;-36
2022/09/25 01:43:29;;;;;;;2.70;2.22;;;17.90;56.20;;;;;;5093526;28;20197;-36
2022/09/25 01:46:04;;;;;;;2.28;1.90;;;17.90;56.20;;;;;;5073714;28;20667;-38
2022/09/25 01:48:36;;;;;;;2.53;2.28;;;17.90;56.20;;;;;;5073246;28;20685;-41
2022/09/25 01:51:12;;;;;;;3.58;2.33;;;17.90;56.20;;;;;;5073325;28;20215;-39
2022/09/25 01:53:48;;;;;;;2.00;1.83;;;17.90;56.20;;;;;;5073376;28;20207;-36
2022/09/25 01:56:25;;;;;;;4.00;2.33;;;17.90;56.20;;;;;;5086277;28;20311;-35
2022/09/25 01:58:59;;;;;;;3.38;2.25;;;17.90;56.20;;;;;;5093135;28;20248;-35
2022/09/25 02:01:34;;;;;;;4.15;2.20;;;17.90;56.30;;;;;;5093109;28;20194;-35
2022/09/25 02:04:10;;;;;;;3.00;1.95;;;17.90;56.30;;;;;;5092487;28;20193;-39
2022/09/25 02:06:45;;;;;;;2.45;1.90;;;17.90;56.30;;;;;;5092735;28;20189;-35
2022/09/25 02:09:20;;;;;;;3.20;2.00;;;17.90;56.30;;;;;;5092941;28;20235;-35
2022/09/25 02:11:56;;;;;;;2.92;2.00;;;17.90;56.30;;;;;;5074993;28;20628;-38
2022/09/25 02:14:34;;;;;;;1.80;1.50;;;18.00;56.40;;;;;;5072652;28;20232;-35
2022/09/25 02:17:11;;;;;;;2.20;1.65;;;18.00;56.30;;;;;;5072563;28;20195;-35
2022/09/25 02:22:34;;;;;;;2.17;1.40;;;18.00;56.40;;;;;;5072409;28;20198;-36
2022/09/25 02:25:10;;;;;;;2.05;1.67;;;18.00;56.40;;;;;;5074777;28;20199;-35
2022/09/25 02:27:41;;;;;;;2.00;1.48;;;18.00;56.50;;;;;;5092451;28;20186;-35
2022/09/25 02:30:12;;;;;;;2.92;1.88;;;18.00;56.60;;;;;;5092395;28;20218;-35
2022/09/25 02:32:45;;;;;;;2.95;2.10;;;18.00;56.60;;;;;;5092630;28;20194;-35
2022/09/25 02:35:16;;;;;;;4.43;1.85;;;18.00;56.70;;;;;;5092892;28;20198;-35
2022/09/25 02:37:46;;;;;;;2.70;1.52;;;18.00;56.70;;;;;;5092613;28;20190;-35
2022/09/25 02:40:17;;;;;;;1.67;1.45;;;18.00;56.60;;;;;;5091536;28;20221;-35
2022/09/25 02:42:56;;;;;;;1.73;1.50;;;18.00;56.60;;;;;;5092163;28;20233;-36
2022/09/25 02:45:39;;;;;;;2.53;1.60;;;18.00;56.60;;;;;;5077000;28;20650;-36
2022/09/25 02:48:20;;;;;;;1.67;1.42;;;18.00;56.60;;;;;;5072016;28;20702;-36
2022/09/25 02:51:01;;;;;;;2.65;1.67;;;18.10;56.60;;;;;;5071743;28;20226;-36
2022/09/25 02:53:38;;;;;;;1.60;1.50;;;18.10;56.50;;;;;;5071758;28;20190;-37
2022/09/25 02:56:15;;;;;;;2.55;1.63;;;18.10;56.50;;;;;;5073807;28;20212;-35
2022/09/25 02:58:50;;;;;;;2.88;1.70;;;18.10;56.50;;;;;;5073599;28;20194;-41
2022/09/25 03:01:24;;;;;;;2.95;1.20;;;18.10;56.60;;;;;;5078860;28;20230;-45
2022/09/25 03:04:00;;;;;;;1.85;1.48;;;18.10;56.60;;;;;;5091836;28;20194;-36
2022/09/25 03:06:31;;;;;;;1.52;1.35;;;18.10;56.60;;;;;;5074642;28;20217;-36
2022/09/25 03:09:03;;;;;;;2.70;1.58;;;18.20;56.60;;;;;;5077933;28;20701;-35
2022/09/25 03:11:42;;;;;;;1.75;1.17;;;18.20;56.60;;;;;;5091042;28;20202;-35
2022/09/25 03:14:13;;;;;;;1.88;1.42;;;18.20;56.60;;;;;;5083861;28;20205;-37
2022/09/25 03:16:48;;;;;;;1.52;1.42;;;18.20;56.60;;;;;;5071121;28;20233;-35
2022/09/25 03:19:21;;;;;;;1.45;1.30;;;18.20;56.50;;;;;;5089767;28;20271;-37
2022/09/25 03:21:53;;;;;;;2.13;1.50;;;18.30;56.50;;;;;;5092026;28;20194;-35
2022/09/25 03:24:24;;;;;;;2.28;1.40;;;18.30;56.40;;;;;;5092189;28;20243;-37
2022/09/25 03:26:55;;;;;;;1.63;1.30;;;18.30;56.40;;;;;;5093136;28;20194;-37
2022/09/25 03:29:26;;;;;;;1.67;1.40;;;18.30;56.40;;;;;;5092101;28;20305;-36
2022/09/25 03:31:56;;;;;;;2.25;1.55;;;18.40;56.40;;;;;;5088428;28;20215;-35
2022/09/25 03:34:29;;;;;;;1.60;1.20;;;18.40;56.40;;;;;;5091249;28;20190;-36
2022/09/25 03:37:00;;;;;;;1.92;1.30;;;18.40;56.30;;;;;;5092153;28;20198;-36
2022/09/25 03:39:30;;;;;;;2.05;1.42;;;18.40;56.30;;;;;;5079875;28;20705;-38
2022/09/25 03:42:01;;;;;;;1.33;1.23;;;18.40;56.30;;;;;;5091941;28;20201;-35
2022/09/25 03:44:32;;;;;;;3.97;1.27;;;18.50;56.30;;;;;;5082516;28;20195;-35
2022/09/25 03:47:02;;;;;;;2.28;1.25;;;18.50;56.20;;;;;;5072049;28;20198;-38
2022/09/25 03:49:35;;;;;;;1.63;1.08;;;18.50;56.20;;;;;;5091445;28;20857;-35
2022/09/25 03:52:07;;;;;;;1.52;1.08;;;18.60;56.20;;;;;;5091816;28;20197;-35
2022/09/25 03:54:37;;;;;;;2.28;1.10;;;18.60;56.20;;;;;;5088501;28;20191;-36
2022/09/25 03:57:08;;;;;;;3.42;1.33;;;18.60;56.10;;;;;;5071368;28;20554;-37
2022/09/25 03:59:39;;;;;;;2.75;1.13;;;18.60;56.20;;;;;;5110929;28;20589;-36
2022/09/25 04:02:10;;;;;;;2.47;1.25;;;18.60;56.10;;;;;;5111452;28;20200;-36
2022/09/25 04:04:44;;;;;;;4.70;1.60;;;18.60;56.20;;;;;;5085141;28;20557;-35
2022/09/25 04:07:15;;;;;;;3.30;1.30;;;18.60;56.20;;;;;;5091279;28;20209;-35
2022/09/25 04:09:46;;;;;;;2.35;1.33;;;18.60;56.10;;;;;;5091970;28;20226;-36
2022/09/25 04:12:16;;;;;;;1.90;0.90;;;18.60;56.10;;;;;;5092188;28;20198;-37
2022/09/25 04:14:47;;;;;;;2.22;1.08;;;18.60;56.10;;;;;;5080120;28;20199;-37
2022/09/25 04:17:18;;;;;;;3.60;1.17;;;18.60;56.10;;;;;;5071555;28;20229;-35
2022/09/25 04:19:51;;;;;;;1.80;1.30;;;18.70;56.10;;;;;;5090465;28;20209;-37
2022/09/25 04:22:22;;;;;;;1.50;0.95;;;18.70;56.00;;;;;;5091785;28;20294;-38
2022/09/25 04:24:58;;;;;;;4.15;1.27;;;18.70;56.00;;;;;;5111251;28;20197;-35
2022/09/25 04:27:29;;;;;;;2.40;1.00;;;18.70;56.00;;;;;;5112491;28;20199;-44
2022/09/25 04:30:00;;;;;;;3.72;1.17;;;18.70;56.00;;;;;;5089452;28;20594;-35
2022/09/25 04:35:19;;;;;;;3.08;0.85;;;18.70;56.00;;;;;;5070950;28;20197;-36
2022/09/25 04:37:50;;;;;;;1.88;1.13;;;18.70;56.00;;;;;;5073663;28;20562;-40
2022/09/25 04:40:21;;;;;;;1.15;1.00;;;18.70;56.00;;;;;;5091047;28;20259;-35
2022/09/25 04:42:56;;;;;;;1.75;1.30;;;18.70;56.00;;;;;;5091469;28;20221;-36
2022/09/25 04:45:27;;;;;;;1.40;0.93;;;18.70;55.80;;;;;;5074000;28;20202;-37
2022/09/25 04:48:00;;;;;;;1.58;0.90;;;18.70;55.80;;;;;;5072741;28;20202;-37
2022/09/25 04:50:33;;;;;;;3.25;1.30;;;18.70;55.80;;;;;;5072742;28;20219;-42
2022/09/25 04:53:04;;;;;;;1.48;1.00;;;18.70;55.80;;;;;;5073633;28;20276;-37
2022/09/25 04:55:35;;;;;;;2.50;1.13;;;18.70;55.70;;;;;;5079970;28;20191;-35
2022/09/25 04:58:07;;;;;;;1.92;1.08;;;18.70;55.70;;;;;;5074014;28;20216;-35
2022/09/25 05:00:39;;;;;;;2.55;1.40;;;18.70;55.60;;;;;;5090344;28;20393;-35
2022/09/25 05:03:10;;;;;;;1.17;0.90;;;18.70;55.60;;;;;;5090395;28;20201;-36
2022/09/25 05:05:42;;;;;;;6.90;1.65;;;18.70;55.60;;;;;;5091276;28;20194;-36
2022/09/25 05:08:13;;;;;;;2.05;1.00;;;18.60;55.50;;;;;;5090466;28;20182;-36
2022/09/25 05:10:46;;;;;;;1.90;0.93;;;18.60;55.60;;;;;;5089588;28;20218;-38
2022/09/25 05:13:17;;;;;;;2.58;1.13;;;18.70;55.60;;;;;;5076878;28;20190;-40
2022/09/25 05:15:48;;;;;;;2.08;0.90;;;18.60;55.50;;;;;;5069878;28;20222;-38
2022/09/25 05:18:20;;;;;;;5.88;1.15;;;18.60;55.50;;;;;;5074932;28;20190;-37
2022/09/25 05:20:53;;;;;;;2.05;1.00;;;18.60;55.50;;;;;;5090482;28;20214;-37
2022/09/25 05:23:24;;;;;;;1.83;1.00;;;18.60;55.50;;;;;;5090630;28;20597;-35
2022/09/25 05:25:59;;;;;;;3.95;1.00;;;18.60;55.50;;;;;;5090033;28;20767;-35
2022/09/25 05:28:30;;;;;;;3.08;1.23;;;18.50;55.40;;;;;;5090864;28;20657;-35
2022/09/25 05:31:02;;;;;;;2.85;1.10;;;18.50;55.40;;;;;;5089665;28;20693;-35
2022/09/25 05:33:33;;;;;;;0.80;0.80;;;18.50;55.40;;;;;;5091084;28;20661;-36
2022/09/25 05:36:08;;;;;;;1.63;0.90;;;18.50;55.50;;;;;;5090412;28;20186;-35
2022/09/25 05:38:40;;;;;;;2.80;0.93;;;18.50;55.40;;;;;;5089904;28;20186;-36
2022/09/25 05:41:12;;;;;;;2.15;1.17;;;18.50;55.40;;;;;;5090852;28;20214;-37
2022/09/25 05:43:46;;;;;;;2.10;1.10;;;18.40;55.40;;;;;;5088353;28;20237;-39
2022/09/25 05:46:17;;;;;;;2.28;1.10;;;18.40;55.40;;;;;;5070287;28;20199;-44
2022/09/25 05:48:48;;;;;;;2.85;0.98;;;18.40;55.50;;;;;;5076162;28;20206;-41
2022/09/25 05:51:20;;;;;;;3.35;0.90;;;18.40;55.50;;;;;;5090671;28;20225;-35
2022/09/25 05:53:51;;;;;;;1.58;0.80;;;18.40;55.50;;;;;;5090267;28;20201;-35
2022/09/25 05:56:23;;;;;;;2.63;1.10;;;18.40;55.50;;;;;;5072609;28;20702;-37
2022/09/25 05:58:54;;;;;;;1.15;0.80;;;18.30;55.40;;;;;;5083496;28;20198;-38
2022/09/25 06:01:25;;;;;;;1.45;0.80;;;18.30;55.40;;;;;;5110511;28;20276;-35
2022/09/25 06:03:56;;;;;;;1.08;0.90;;;18.30;55.40;;;;;;5110633;28;20190;-35
2022/09/25 06:06:30;;;;;;;1.77;0.98;;;18.30;55.50;;;;;;5111140;28;20197;-35
2022/09/25 06:09:01;;;;;;;3.33;1.00;;;18.30;55.50;;;;;;5110628;28;20205;-36
2022/09/25 06:11:32;;;;;;;1.60;1.00;;;18.30;55.50;;;;;;5109905;28;20683;-35
2022/09/25 06:14:03;;;;;;;1.95;1.15;;;18.30;55.50;;;;;;5098664;28;20199;-38
2022/09/25 06:16:33;;;;;;;1.80;1.17;;;18.30;55.50;;;;;;5069891;28;20206;-36
2022/09/25 06:19:04;;;;;;;2.20;1.13;;;18.20;55.50;;;;;;5077471;28;20237;-37
2022/09/25 06:21:37;;;;;;;1.95;0.80;;;18.20;55.50;;;;;;5110788;28;20194;-35
2022/09/25 06:24:08;;;;;;;2.03;0.95;;;18.20;55.50;;;;;;5110357;28;20193;-35
2022/09/25 06:26:38;;;;;;;2.13;1.08;;;18.20;55.50;;;;;;5109678;28;20190;-35
2022/09/25 06:29:09;;;;;;;2.15;0.90;;;18.20;55.60;;;;;;5113533;28;20209;-41
2022/09/25 06:31:40;;;;;;;2.00;0.80;;;18.20;55.60;;;;;;5113110;28;20196;-36
2022/09/25 06:34:12;;;;;;;1.95;1.08;;;18.10;55.50;;;;;;5113265;28;20200;-36
2022/09/25 06:36:44;;;;;;;1.85;0.80;;;18.20;55.60;;;;;;5097728;28;20198;-34
2022/09/25 06:39:15;;;;;;;2.63;1.15;;;18.10;55.60;;;;;;5092481;28;20198;-34
2022/09/25 06:41:46;;;;;;;1.90;0.95;;;18.10;55.60;;;;;;5092260;28;20193;-34
2022/09/25 06:44:16;;;;;;;2.30;0.88;;;18.10;55.60;;;;;;5084985;28;20206;-38
2022/09/25 06:46:49;;;;;;;1.83;0.90;;;18.10;55.60;;;;;;5072004;28;20205;-38
2022/09/25 06:49:20;;;;;;;2.30;0.93;;;18.10;55.60;;;;;;5071480;28;20701;-35
2022/09/25 06:51:53;;;;;;;3.33;1.27;;;18.10;56.30;;;;;;5086515;28;20202;-37
2022/09/25 06:54:24;;;;;;;1.30;0.98;;;18.10;55.70;;;;;;5090170;28;20221;-35
2022/09/25 06:56:54;;;;;;;0.73;0.63;;;18.10;55.70;;;;;;5091812;28;20204;-36
2022/09/25 06:59:25;;;;;;;1.35;0.80;;;18.10;55.80;;;;;;5092045;28;20252;-34
2022/09/25 07:03:43;;;;;;;1.08;0.80;;;18.10;55.80;;;;;;5092031;28;20190;-39
2022/09/25 07:04:45;;;;;;;0.80;0.75;;;18.10;55.80;;;;;;5091867;28;20201;-36
2022/09/25 07:07:19;;;;;;;2.30;0.88;;;18.10;55.90;;;;;;5074047;28;20195;-35
2022/09/25 07:09:50;;;;;;;2.05;0.93;;;18.10;55.90;;;;;;5071973;28;20233;-35
2022/09/25 07:12:21;;;;;;;2.20;0.80;;;18.10;56.00;;;;;;5071249;28;20213;-35
2022/09/25 07:14:52;;;;;;;0.95;0.85;;;18.00;55.90;;;;;;5071323;28;20235;-35
2022/09/25 07:17:22;;;;;;;2.85;1.02;;;18.00;56.00;;;;;;5089296;28;20186;-37
2022/09/25 07:19:53;;;;;;;6.57;1.00;;;18.00;56.00;;;;;;5091880;28;20218;-35
2022/09/25 07:22:26;;;;;;;1.48;0.85;;;18.00;56.10;;;;;;5073232;28;20195;-35
2022/09/25 07:24:57;;;;;;;1.30;1.00;;;18.00;56.10;;;;;;5091188;28;20195;-35
2022/09/25 07:27:27;;;;;;;1.23;0.90;;;18.00;56.20;;;;;;5091751;28;20190;-35
2022/09/25 07:29:58;;;;;;;1.73;0.90;;;18.00;56.20;;;;;;5092077;28;20589;-36
2022/09/25 07:32:30;;;;;;;0.98;0.88;;;18.00;56.20;;;;;;5091377;28;20198;-35
2022/09/25 07:35:01;;;;;;;2.00;1.10;;;18.00;56.30;;;;;;5091563;28;20255;-35
2022/09/25 07:37:34;;;;;;;0.90;0.80;;;18.00;56.20;;;;;;5090871;28;20278;-36
2022/09/25 07:40:04;;;;;;;3.25;1.02;;;17.90;56.10;;;;;;5091305;28;20224;-35
2022/09/25 07:42:35;;;;;;;2.78;1.00;;;18.00;56.30;;;;;;5090888;28;20263;-36
2022/09/25 07:45:06;;;;;;;1.83;0.90;;;18.00;56.30;;;;;;5076126;28;20202;-37
2022/09/25 07:47:37;;;;;;;1.67;1.00;;;17.90;56.20;;;;;;5070808;28;20187;-36
2022/09/25 07:50:09;;;;;;;1.35;0.90;;;17.90;56.20;;;;;;5070825;28;20227;-35
2022/09/25 07:52:41;;;;;;;1.65;0.73;;;17.90;56.20;;;;;;5089083;28;20190;-35
2022/09/25 07:55:12;;;;;;;1.27;0.77;;;17.90;56.20;;;;;;5090738;28;20190;-35
2022/09/25 07:57:43;;;;;;;1.27;0.90;;;17.90;56.20;;;;;;5090313;28;20198;-35
2022/09/25 08:00:14;;;;;;;1.67;0.80;;;17.80;56.10;;;;;;5090401;28;20213;-35
2022/09/25 08:02:45;;;;;;;1.35;0.80;;;17.80;56.10;;;;;;5090449;28;20198;-37
2022/09/25 08:05:16;;;;;;;0.98;0.70;;;17.80;56.10;;;;;;5090768;28;20209;-38
2022/09/25 08:07:49;;;;;;;1.00;0.73;;;17.80;56.10;;;;;;5071806;28;20273;-36
2022/09/25 08:10:19;;;;;;;1.33;0.70;;;17.80;56.10;;;;;;5070590;28;20226;-36
2022/09/25 08:12:50;;;;;;;0.80;0.73;;;17.80;56.20;;;;;;5070704;28;20198;-36
2022/09/25 08:15:21;;;;;;;0.90;0.70;;;17.80;56.20;;;;;;5070532;28;20585;-37
2022/09/25 08:17:52;;;;;;;0.98;0.77;;;17.80;56.20;;;;;;5069975;28;20340;-35
2022/09/25 08:20:23;;;;;;;1.20;0.70;;;17.80;56.20;;;;;;5069882;28;20694;-35
2022/09/25 08:22:58;;;;;;;1.00;0.85;;;17.80;56.20;;;;;;5070054;28;20277;-39
2022/09/25 08:25:29;;;;;;;1.15;0.80;;;17.70;56.10;;;;;;5070320;28;20205;-35
2022/09/25 08:27:59;;;;;;;0.73;0.65;;;17.70;56.10;;;;;;5069956;28;20203;-43
2022/09/25 08:30:30;;;;;;;1.38;0.65;;;17.70;56.10;;;;;;5070312;28;20233;-35
2022/09/25 08:33:01;;;;;;;1.95;0.70;;;17.70;56.10;;;;;;5070415;28;20195;-38
2022/09/25 08:35:32;;;;;;;2.05;0.77;;;17.70;56.10;;;;;;5070465;28;20194;-37
2022/09/25 08:38:04;;;;;;;1.25;0.70;;;17.70;56.10;;;;;;5089150;28;20198;-38
2022/09/25 08:40:36;;;;;;;1.08;0.85;;;17.70;56.10;;;;;;5090070;28;20210;-35
2022/09/25 08:43:08;;;;;;;1.40;0.90;;;17.70;56.10;;;;;;5090006;28;20208;-38
2022/09/25 08:51:21;;;;;;;0.77;0.70;;;17.70;56.20;;;;;;5071211;28;20229;-35
2022/09/25 08:53:54;;;;;;;0.70;0.70;;;17.60;56.10;;;;;;5089768;28;20201;-36
2022/09/25 08:56:25;;;;;;;1.38;1.08;;;17.60;56.10;;;;;;5090215;28;20198;-39
2022/09/25 08:58:59;;;;;;;0.77;0.70;;;17.60;56.10;;;;;;5089802;28;20205;-41
2022/09/25 09:01:38;;;;;;;1.05;0.80;;;17.60;56.10;;;;;;5089770;28;20202;-37
2022/09/25 09:04:17;;;;;;;1.70;1.02;;;17.60;56.10;;;;;;5089742;28;20209;-35
2022/09/25 09:06:53;;;;;;;1.23;0.70;;;17.60;56.10;;;;;;5081937;28;20234;-35
2022/09/25 09:09:29;;;;;;;1.45;0.80;;;17.60;56.00;;;;;;5071765;28;20214;-34
2022/09/25 09:12:08;;;;;;;1.40;0.75;;;17.60;56.10;;;;;;5069682;28;20221;-34
2022/09/25 09:14:44;;;;;;;1.13;0.80;;;17.50;56.00;;;;;;5069725;28;20689;-35
2022/09/25 09:17:19;;;;;;;0.65;0.63;;;17.50;56.10;;;;;;5069330;28;20206;-38
2022/09/25 09:19:53;;;;;;;0.70;0.70;;;17.50;56.10;;;;;;5069571;28;20736;-35
2022/09/25 09:22:30;;;;;;;1.20;0.80;;;17.50;56.10;;;;;;5069643;28;20568;-40
2022/09/25 09:25:08;;;;;;;0.60;0.60;;;17.50;56.10;;;;;;5080152;28;20664;-36
2022/09/25 09:28:04;;;;;;;1.25;0.73;;;17.50;56.10;;;;;;5089976;28;20194;-35
2022/09/25 09:30:42;;;;;;;0.73;0.65;;;17.50;56.20;;;;;;5090285;28;20704;-35
2022/09/25 09:33:33;;;;;;;0.82;0.70;;;17.50;56.10;;;;;;5089260;28;20201;-35
2022/09/25 09:36:12;;;;;;;1.10;0.70;;;17.50;56.10;;;;;;5089756;28;20193;-35
2022/09/25 09:38:55;;;;;;;1.80;0.82;;;17.50;56.10;;;;;;5069808;28;20199;-35
2022/09/25 09:41:46;;;;;;;0.75;0.75;;;17.50;56.10;;;;;;5069659;28;20453;-35
2022/09/25 09:44:34;;;;;;;1.90;0.70;;;17.50;56.10;;;;;;5069978;28;20199;-34
2022/09/25 09:47:16;;;;;;;1.35;0.63;;;17.40;56.10;;;;;;5069349;28;20205;-37
2022/09/25 09:49:51;;;;;;;1.52;1.00;;;17.40;56.10;;;;;;5069398;28;20222;-34
2022/09/25 09:52:24;;;;;;;1.60;0.80;;;17.40;56.20;;;;;;5069557;28;20198;-34
2022/09/25 09:54:58;;;;;;;1.52;0.80;;;17.40;56.20;;;;;;5069179;28;20206;-35
2022/09/25 09:57:34;;;;;;;1.27;0.80;;;17.40;56.20;;;;;;5068449;28;20217;-40
2022/09/25 10:00:07;;;;;;;0.65;0.60;;;17.40;56.20;;;;;;5068798;28;20225;-36
2022/09/25 10:02:41;;;;;;;0.77;0.70;;;17.40;56.20;;;;;;5072891;28;20205;-34
2022/09/25 10:05:19;;;;;;;1.40;1.00;;;17.40;56.20;;;;;;5073147;28;20198;-34
2022/09/25 10:07:52;;;;;;;0.80;0.75;;;17.40;56.20;;;;;;5085348;28;20677;-37
2022/09/25 10:10:24;;;;;;;0.85;0.85;;;17.30;56.10;;;;;;5092414;28;20218;-35
2022/09/25 10:13:00;;;;;;;0.93;0.80;;;17.40;56.10;;;;;;5092995;28;20198;-40
2022/09/25 10:15:34;;;;;;;1.10;0.70;;;17.30;56.10;;;;;;5075270;28;20475;-39
2022/09/25 10:18:06;;;;;;;1.52;0.80;;;17.30;56.10;;;;;;5072879;28;20195;-35
2022/09/25 10:20:43;;;;;;;1.63;1.00;;;17.30;56.10;;;;;;5072840;28;20219;-37
2022/09/25 10:23:32;;;;;;;0.93;0.60;;;17.30;56.10;;;;;;5088056;28;20543;-34
2022/09/25 10:26:03;;;;;;;1.30;0.95;;;17.30;56.10;;;;;;5093012;28;20190;-37
2022/09/25 10:28:36;;;;;;;1.25;0.82;;;17.30;56.10;;;;;;5093046;28;20269;-37
2022/09/25 10:31:09;;;;;;;1.05;0.82;;;17.20;56.80;;;;;;5092402;28;20572;-38
2022/09/25 10:33:40;;;;;;;1.17;0.80;;;17.20;56.10;;;;;;5092425;28;20650;-35
2022/09/25 10:36:11;;;;;;;0.82;0.60;;;17.20;56.10;;;;;;5092697;28;20771;-37
2022/09/25 10:38:48;;;;;;;1.75;0.80;;;17.20;56.10;;;;;;5073284;28;20205;-39
2022/09/25 10:41:22;;;;;;;1.10;0.82;;;17.20;56.10;;;;;;5071909;28;20222;-40
2022/09/25 10:43:58;;;;;;;1.60;0.93;;;17.20;56.10;;;;;;5072155;28;20713;-39
2022/09/25 10:52:08;;;;;;;1.30;0.75;;;17.20;56.20;;;;;;5087392;28;20229;-49
2022/09/25 10:54:39;;;;;;;1.65;0.70;;;17.10;56.20;;;;;;5071669;28;20191;-38
2022/09/25 10:57:33;;;;;;;2.33;0.75;;;17.10;56.40;;;;;;5075766;28;20191;-37
2022/09/25 11:00:17;;;;;;;3.63;0.93;;;17.10;56.60;;;;;;5075349;28;20219;-44
2022/09/25 11:02:50;;;;;;;2.90;0.90;;;17.20;56.70;;;;;;5077501;28;20556;-37
2022/09/25 11:05:23;;;;;;;3.22;0.90;;;17.20;56.70;;;;;;5080608;28;20220;-42
2022/09/25 11:07:56;;;;;;;4.25;0.95;;;17.20;56.70;;;;;;5112642;28;20328;-38
2022/09/25 11:10:29;;;;;;;4.03;0.80;;;17.20;56.90;;;;;;5080379;28;20258;-41
2022/09/25 11:13:03;;;;;;;1.80;0.85;;;17.20;57.10;;;;;;5091953;28;20276;-37
2022/09/25 11:15:38;;;;;;;1.55;0.82;;;17.20;57.20;;;;;;5078749;28;20189;-41
2022/09/25 11:18:30;;;;;;;2.20;0.90;;;17.20;57.30;;;;;;5074441;28;20201;-38
2022/09/25 11:21:05;;;;;;;3.78;1.08;;;17.20;57.30;;;;;;5081589;28;20799;-37
2022/09/25 11:23:39;;;;;;;3.35;1.45;;;17.20;57.20;;;;;;5092761;28;20562;-38
2022/09/25 11:26:20;;;;;;;2.58;1.00;;;17.20;57.20;;;;;;5092802;28;20244;-38
2022/09/25 11:29:00;;;;;;;3.42;1.35;;;17.10;57.20;;;;;;5085619;28;20205;-42
2022/09/25 11:31:37;;;;;;;3.38;1.20;;;17.10;57.20;;;;;;5083946;28;20639;-49
2022/09/25 11:34:16;;;;;;;3.30;1.25;;;17.10;57.20;;;;;;5092302;28;20217;-40
2022/09/25 11:36:50;;;;;;;2.75;1.55;;;17.10;57.20;;;;;;5092280;28;20205;-47
2022/09/25 11:42:19;;;;;;;3.22;1.20;;;17.10;57.30;;;;;;5077500;28;20255;-39
2022/09/25 11:44:56;;;;;;;2.08;1.30;;;17.10;57.90;;;;;;5071530;28;20209;-45
2022/09/25 11:47:38;;;;;;;2.85;1.40;;;17.10;57.30;;;;;;5091415;28;20185;-42
2022/09/25 11:50:16;;;;;;;1.38;1.05;;;17.10;57.20;;;;;;5088454;28;20753;-45
2022/09/25 11:52:58;;;;;;;3.80;1.73;;;17.10;57.20;;;;;;5072315;28;20198;-46
2022/09/25 11:56:05;;;;;;;2.22;1.63;;;17.10;57.30;;;;;;5074373;28;20190;-43
2022/09/25 11:58:52;;;;;;;2.58;1.50;;;17.00;57.20;;;;;;5029499;28;20195;-37
2022/09/25 12:01:30;;;;;;;2.78;1.50;;;17.00;57.20;;;;;;5090725;28;20206;-48
2022/09/25 12:04:38;;;;;;;2.95;1.75;;;17.00;57.30;;;;;;5091989;28;20186;-47
2022/09/25 12:07:40;;;;;;;2.40;1.63;;;17.00;57.40;;;;;;5092410;28;20190;-36
2022/09/25 12:10:23;;;;;;;2.72;1.52;;;17.00;57.40;;;;;;5091358;28;20758;-37
2022/09/25 12:13:01;;;;;;;3.20;1.90;;;17.00;57.40;;;;;;5071774;28;20209;-40
2022/09/25 12:15:45;;;;;;;2.47;1.70;;;17.00;57.40;;;;;;5073187;28;20241;-37
2022/09/25 12:18:23;;;;;;;3.42;1.95;;;16.90;57.30;;;;;;5092226;28;20198;-37
2022/09/25 12:21:00;;;;;;;3.00;1.67;;;16.90;57.30;;;;;;5091855;28;20225;-42
2022/09/25 12:23:34;;;;;;;2.17;1.67;;;16.90;57.30;;;;;;5090297;28;20202;-37
2022/09/25 12:26:20;;;;;;;2.90;1.70;;;16.90;57.20;;;;;;5090406;28;20194;-37
2022/09/25 12:29:11;;;;;;;3.35;1.63;;;16.90;57.30;;;;;;5090789;28;20688;-37
2022/09/25 12:31:53;;;;;;;2.35;1.45;;;16.90;57.20;;;;;;5089388;28;20263;-37
2022/09/25 12:34:39;;;;;;;2.35;1.55;;;16.80;57.20;;;;;;5090247;28;20669;-36
2022/09/25 12:37:21;;;;;;;2.40;1.45;;;16.80;57.20;;;;;;5090475;28;20190;-39
2022/09/25 12:39:56;;;;;;;2.83;1.70;;;16.80;57.20;;;;;;5090537;28;20271;-36
2022/09/25 12:42:36;;;;;;;2.25;1.60;;;16.80;57.10;;;;;;5090493;28;20233;-37
2022/09/25 12:45:16;;;;;;;2.60;1.77;;;16.80;57.10;;;;;;5075517;28;20280;-38
2022/09/25 12:47:54;;;;;;;2.33;1.40;;;16.80;57.10;;;;;;5071564;28;20562;-35
2022/09/25 12:50:29;;;;;;;2.42;1.58;;;16.80;57.10;;;;;;5069330;28;20215;-36
2022/09/25 12:53:14;;;;;;;2.13;1.40;;;16.80;57.10;;;;;;5069925;28;20697;-36
2022/09/25 12:55:50;;;;;;;3.42;1.50;;;16.70;57.00;;;;;;5069643;28;20199;-35
2022/09/25 12:58:27;;;;;;;1.98;1.50;;;16.70;57.00;;;;;;5069919;28;20194;-37
2022/09/25 13:01:04;;;;;;;3.17;1.77;;;16.70;57.00;;;;;;5069887;28;20214;-39
2022/09/25 13:03:48;;;;;;;3.47;1.65;;;16.70;57.10;;;;;;5070116;28;20735;-37
2022/09/25 13:06:26;;;;;;;1.58;1.40;;;16.70;57.10;;;;;;5069873;28;20563;-35
2022/09/25 13:09:09;;;;;;;1.85;1.40;;;16.70;57.10;;;;;;5070139;28;20198;-34
2022/09/25 13:11:45;;;;;;;2.55;1.48;;;16.60;57.00;;;;;;5072566;28;20218;-35
2022/09/25 13:14:24;;;;;;;1.98;1.48;;;16.60;57.00;;;;;;5077425;28;20251;-34
2022/09/25 13:16:56;;;;;;;4.35;1.40;;;16.60;57.00;;;;;;5089212;28;20194;-35
2022/09/25 13:19:31;;;;;;;2.33;1.60;;;16.60;56.90;;;;;;5089545;28;20245;-36
2022/09/25 13:22:09;;;;;;;2.65;1.60;;;16.60;56.90;;;;;;5089990;28;20552;-35
2022/09/25 13:24:47;;;;;;;2.67;1.45;;;16.60;56.90;;;;;;5089772;28;20247;-34
2022/09/25 13:27:23;;;;;;;2.72;1.67;;;16.60;56.90;;;;;;5089618;28;20202;-35
2022/09/25 13:29:59;;;;;;;2.75;1.52;;;16.60;56.90;;;;;;5090326;28;20619;-35
2022/09/25 13:32:33;;;;;;;2.38;1.13;;;16.60;56.90;;;;;;5078833;28;20632;-39
2022/09/25 13:35:07;;;;;;;2.38;1.65;;;16.60;56.90;;;;;;5078894;28;20195;-37
2022/09/25 13:37:40;;;;;;;2.70;1.40;;;16.50;56.90;;;;;;5093320;28;20724;-35
2022/09/25 13:43:23;;;;;;;2.20;1.30;;;16.50;56.90;;;;;;5093991;28;20263;-36
2022/09/25 13:46:25;;;;;;;2.55;1.40;;;16.50;56.90;;;;;;5073144;28;20289;-38
2022/09/25 13:49:12;;;;;;;3.85;1.40;;;16.50;56.90;;;;;;5072771;28;20206;-41